Tiempo atmosférico en la estación meteorológica de Tresviso, Cantabria (912 m.)



Fecha
DESCASC
Temp. máxima en grados centígrados (hora)
DESCASC
Temp. mínima en grados centígrados (hora)
DESCASC
Temp. media en grados centígrados
DESCASC
Racha de viento máxima en m/sg (hora)
DESCASC
Velocidad máxima media en intervalos de 10 minutos(hora)
DESCASC
Precipitaciones diarias en mm
DESCASC
Precipitaciones de 00:00 a 06:00 en mm
DESCASC
Precipitaciones de 06:00 a 12:00 en mm
DESCASC
Precipitaciones de 12:00 a 18:00 en mm
DESCASC
Precipitaciones de 18:00 a 24:00 en mm
DESCASC
31-07-2019 16.7 (15:30) 9.5 (00:00) 13.1 5.56 (18:10) 3.61 (18:00) 0 0 0 0 0
09-08-2019 24.1 (00:30) 15.7 (00:00) 19.9 16.67 (00:30) 11.67 (00:30) 0 0 0 0 0
08-08-2019 27.1 (17:20) 16.9 (00:00) 22 16.94 (19:40) 8.61 (16:00) 0 0 0 0 0
07-08-2019 21.9 (15:20) 14.6 (00:00) 18.3 5.83 (16:10) 3.89 (16:20) 0 0 0 0 0
10-08-2019 18 (13:20) 12.2 (00:00) 15.1 7.5 (14:20) 4.72 (14:20) 0 0 0 0 0
05-08-2019 21.7 (17:20) 13.6 (00:00) 17.7 3.89 (14:40) 2.22 (14:40) 0 0 0 0 0
03-08-2019 24 (15:00) 15 (00:00) 19.5 3.06 (16:00) 1.67 (05:10) 0 0 0 0 0
02-08-2019 22.1 (16:30) 11.8 (00:00) 17 3.61 (13:30) 1.67 (16:30) 0 0 0 0 0
01-08-2019 18.1 (16:10) 11.5 (00:00) 14.8 6.11 (18:20) 3.33 (18:20) 0 0 0 0 0
13-08-2019 17.5 (17:40) 8.8 (00:00) 13.2 7.22 (15:00) 3.89 (15:50) 0 0 0 0 0
14-08-2019 22.7 (14:30) 13.2 (00:00) 18 5.28 (06:00) 2.78 (06:00) 0 0 0 0 0
28-07-2019 18.4 (15:50) 9.4 (00:00) 13.9 6.94 (00:20) 4.17 (00:30) 0 0 0 0 0
16-08-2019 24.9 (15:50) 12.4 (00:00) 18.6 3.61 (13:50) 2.22 (18:00) 0 0 0 0 0
25-07-2019 25.2 (09:50) 15.4 (00:00) 20.3 8.89 (17:50) 5.28 (17:20) 0 0 0 0 0
24-07-2019 31.9 (19:20) 17.3 (00:00) 24.6 11.94 (01:40) 6.39 (01:40) 0 0 0 0 0
17-08-2019 23.8 (13:20) 15 (00:00) 19.4 3.89 (16:10) 1.94 (15:00) 0 0 0 0 0
04-08-2019 18.1 (13:30) 13.5 (00:00) 15.8 3.33 (14:40) 1.67 (09:00) 0.2 0 0 0 0.2
12-08-2019 14.7 (14:40) 9.3 (00:00) 12 10 (11:50) 6.94 (11:40) 0.2 0 0 0 0.2
15-08-2019 17.9 (12:10) 12.4 (00:00) 15.1 8.61 (00:50) 5.83 (00:50) 0.2 0.2 0 0 0
23-07-2019 29.8 (16:10) 17.9 (00:00) 23.8 15.83 (09:10) 8.33 (09:10) 0.2 0 0 0 0.2
29-07-2019 17.6 (10:40) 12 (00:00) 14.8 9.44 (23:00) 5.83 (23:20) 0.8 0 0 0 0.8
30-07-2019 15.3 (13:10) 10 (00:00) 12.7 10 (04:50) 7.78 (05:10) 1 0 0 0 1
22-07-2019 24.2 (23:10) 15.2 (00:00) 19.7 22.78 (22:20) 13.33 (22:20) 2.6 0 0 0 2.6
19-08-2019 13.3 (13:30) 10.1 (00:00) 11.7 6.94 (19:50) 4.72 (19:50) 4.8 1.2 0.4 0.4 2.8
11-08-2019 14.2 (11:20) 10.5 (00:00) 12.3 7.78 (23:00) 5 (20:40) 5 0.8 0 2.2 2
27-07-2019 14.7 (17:40) 10.2 (00:00) 12.4 7.78 (23:50) 4.44 (20:20) 5.2 1.6 2 1 0.6
20-08-2019 16.1 (15:40) 10.5 (00:00) 13.3 8.61 (06:10) 5.56 (05:20) 8.4 6.6 1.8 0 0
18-08-2019 20.3 (03:30) 10.7 (00:00) 15.5 6.39 (15:00) 4.17 (14:40) 13.6 0 0 12 1.6
06-08-2019 24.8 (13:50) 14.2 (00:00) 19.5 6.67 (21:50) 4.17 (21:50) 15 0 0 0 15
26-07-2019 15.4 (00:00) 10.7 (00:00) 13 8.33 (15:40) 5.28 (10:40) 23.8 12.6 10 0 1.2

Gráficas

Temp. máximas Temp. mínimas Temp. medias Precipitaciones Rachas de viento máximas Velocidades máximas media en intervalos de 10 minutos

Datos horarios

Fecha y hora oficial Temperatura (ºC) Velocidad del viento (km/h) Dirección del viento Racha (km/h) Dirección de racha Precipitación (mm) Presión (hPa) Tendencia (hPa) Humedad (%)
2019-08-20 23:00:00 11.7 5 Nordeste 18 Nordeste 0 -- -- 95
2019-08-20 22:00:00 12.1 9 Nordeste 24 Nordeste 0 -- -- 94
2019-08-20 21:00:00 12.7 9 Nordeste 14 Nordeste 0 -- -- 93
2019-08-20 20:00:00 13.3 4 Nordeste 16 Nordeste 0 -- -- 89
2019-08-20 19:00:00 13.7 10 Nordeste 20 Nordeste 0 -- -- 87
2019-08-20 18:00:00 15.3 9 Nordeste 18 Nordeste 0 -- -- 81
2019-08-20 17:00:00 15.3 12 Nordeste 23 Nordeste 0 -- -- 85
2019-08-20 16:00:00 15.6 10 Nordeste 20 Nordeste 0 -- -- 82
2019-08-20 15:00:00 15.3 10 Nordeste 16 Este 0 -- -- 81
2019-08-20 14:00:00 14.2 5 Nordeste 16 Nordeste 0 -- -- 88
2019-08-20 13:00:00 13.3 7 Nordeste 14 Nordeste 0 -- -- 95
2019-08-20 12:00:00 11.4 4 Nordeste 10 Sudeste 0 -- -- 96
2019-08-20 11:00:00 11.2 2 Norte 12 Nordeste 0.4 -- -- 97
2019-08-20 10:00:00 10.9 8 Nordeste 15 Nordeste 1 -- -- 96
2019-08-20 09:00:00 10.9 2 Este 6 Nordeste 0 -- -- 96
2019-08-20 08:00:00 10.8 3 Norte 6 Nordeste 0.4 -- -- 96
2019-08-20 07:00:00 10.9 4 Este 31 Este 0 -- -- 95
2019-08-20 06:00:00 10.6 15 Nordeste 28 Nordeste 0 -- -- 96
2019-08-20 05:00:00 10.6 13 Norte 22 Nordeste 1.2 -- -- 98
2019-08-20 04:00:00 10.6 3 Nordeste 8 Nordeste 1.8 -- -- 98
2019-08-20 03:00:00 10.6 4 Norte 13 Este 1.6 -- -- 98
2019-08-20 02:00:00 10.9 3 Sudeste 9 Este 1.2 -- -- 98
2019-08-20 01:00:00 10.9 3 Norte 8 Noroeste 0.8 -- -- 97
2019-08-20 00:00:00 10.6 5 Norte 10 Nordeste 0.2 -- -- 96
2019-08-19 23:00:00 10.8 5 Norte 9 Norte 0 -- -- 95
2019-08-19 22:00:00 10.8 3 Noroeste 11 Nordeste 0 -- -- 94
2019-08-19 21:00:00 10.5 7 Nordeste 22 Nordeste 0.6 -- -- 96
2019-08-19 20:00:00 10.7 15 Nordeste 25 Nordeste 0.6 -- -- 97
2019-08-19 19:00:00 11.2 9 Nordeste 21 Nordeste 1.4 -- -- 96
2019-08-19 18:00:00 11.5 10 Nordeste 19 Nordeste 0.4 -- -- 95
2019-08-19 17:00:00 12.2 3 Este 13 Nordeste 0 -- -- 94
2019-08-19 16:00:00 12.1 9 Nordeste 14 Este 0 -- -- 93
2019-08-19 15:00:00 12.5 10 Nordeste 16 Nordeste 0 -- -- 89
2019-08-19 14:00:00 12.9 4 Nordeste 12 Nordeste 0 -- -- 91
2019-08-19 13:00:00 12.8 6 Nordeste 12 Nordeste 0 -- -- 89
2019-08-19 12:00:00 11.2 7 Nordeste 10 Nordeste 0 -- -- 98
2019-08-19 11:00:00 10.5 5 Nordeste 17 Nordeste 0.2 -- -- 97
2019-08-19 10:00:00 10.6 8 Nordeste 17 Nordeste 0.2 -- -- 98
2019-08-19 09:00:00 10.5 5 Nordeste 7 Nordeste 0 -- -- 97
2019-08-19 08:00:00 10.3 2 Norte 7 Sudoeste 0 -- -- 96
2019-08-19 07:00:00 10.3 3 Sudoeste 5 Sur 0 -- -- 96
2019-08-19 06:00:00 10.5 0 Calma 8 Oeste 0 -- -- 96
2019-08-19 05:00:00 10.4 7 Sudoeste 11 Sudoeste 0 -- -- 97
2019-08-19 04:00:00 10.2 0 Calma 5 Sudoeste 0 -- -- 98
2019-08-19 03:00:00 10.7 2 Nordeste 6 Nordeste 1.2 -- -- 97
2019-08-19 02:00:00 10.9 3 Sudeste 6 Noroeste 0 -- -- 97
2019-08-19 01:00:00 10.9 9 Oeste 15 Oeste 0 -- -- 95
2019-08-19 00:00:00 10.7 12 Oeste 17 Oeste 0.2 -- -- 98
2019-08-18 23:00:00 11.4 5 Sudoeste 12 Sudoeste 0.2 -- -- 98
2019-08-18 22:00:00 11.3 9 Sudoeste 14 Sudoeste 0 -- -- 98
2019-08-18 21:00:00 11.6 7 Sudoeste 17 Sudoeste 0 -- -- 97
2019-08-18 20:00:00 11.9 7 Sudoeste 19 Sudoeste 0 -- -- 97
2019-08-18 19:00:00 12.6 5 Sur 13 Sudoeste 1.2 -- -- 96
2019-08-18 18:00:00 13.9 3 Sudeste 11 Sur 2.4 -- -- 96
2019-08-18 17:00:00 13.9 5 Sudeste 18 Sudoeste 2.6 -- -- 96
2019-08-18 16:00:00 13.8 8 Sur 23 Sudoeste 6.6 -- -- 96
2019-08-18 15:00:00 13.5 12 Sudoeste 23 Oeste 0.4 -- -- 93
2019-08-18 14:00:00 14.9 5 Sur 14 Sudoeste 0 -- -- 94
2019-08-18 13:00:00 17.4 3 Nordeste 7 Nordeste 0 -- -- 90
2019-08-18 12:00:00 16.8 0 Calma 9 Noroeste 0 -- -- 90
2019-08-18 11:00:00 16.5 2 Nordeste 12 Nordeste 0 -- -- 92
2019-08-18 10:00:00 15.9 7 Nordeste 17 Nordeste 0 -- -- 92
2019-08-18 09:00:00 16.2 3 Este 8 Nordeste 0 -- -- 93
2019-08-18 08:00:00 16.2 5 Sudoeste 12 Sudoeste 0 -- -- 94
2019-08-18 07:00:00 16.2 3 Este 7 Noroeste 0 -- -- 89
2019-08-18 06:00:00 17.1 0 Calma 8 Sur 0 -- -- 86
2019-08-18 05:00:00 17.8 3 Norte 13 Norte 0 -- -- 81
2019-08-18 04:00:00 19.7 6 Este 15 Oeste 0 -- -- 72
2019-08-18 03:00:00 19.2 0 Calma 5 Noroeste 0 -- -- 73
2019-08-18 02:00:00 18.7 2 Sudoeste 12 Norte 0 -- -- 75
2019-08-18 01:00:00 18.6 0 Calma 13 Sur 0 -- -- 75
2019-08-18 00:00:00 17.8 4 Oeste 8 Oeste 0 -- -- 81
2019-08-17 23:00:00 17.4 2 Oeste 5 Sudoeste 0 -- -- 88
2019-08-17 22:00:00 18.5 0 Calma 4 Sudoeste 0 -- -- 84
2019-08-17 21:00:00 19.6 0 Calma 6 Este 0 -- -- 79
2019-08-17 20:00:00 21.5 2 Este 9 Nordeste 0 -- -- 73
2019-08-17 19:00:00 22.8 4 Sur 11 Sur 0 -- -- 69
2019-08-17 18:00:00 23.7 5 Sudeste 11 Este 0 -- -- 66
2019-08-17 17:00:00 23.3 4 Nordeste 14 Este 0 -- -- 66
2019-08-17 16:00:00 23.6 4 Este 12 Nordeste 0 -- -- 65
2019-08-17 15:00:00 22.7 7 Nordeste 13 Nordeste 0 -- -- 69
2019-08-17 14:00:00 23.2 4 Nordeste 13 Este 0 -- -- 69
2019-08-17 13:00:00 22.9 4 Sudeste 11 Sur 0 -- -- 67
2019-08-17 12:00:00 22.4 3 Sudeste 9 Este 0 -- -- 66
2019-08-17 11:00:00 21.6 4 Nordeste 8 Nordeste 0 -- -- 70
2019-08-17 10:00:00 20.7 2 Sur 5 Nordeste 0 -- -- 67
2019-08-17 09:00:00 18.7 0 Calma 6 Norte 0 -- -- 69
2019-08-17 08:00:00 18 0 Calma 8 Norte 0 -- -- 67
2019-08-17 07:00:00 18.3 4 Norte 10 Noroeste 0 -- -- 66
2019-08-17 06:00:00 17.9 3 Sur 6 Norte 0 -- -- 69
2019-08-17 05:00:00 17 3 Norte 6 Norte 0 -- -- 75
2019-08-17 04:00:00 16.4 4 Norte 9 Norte 0 -- -- 81
2019-08-17 03:00:00 16.3 5 Norte 9 Norte 0 -- -- 82
2019-08-17 02:00:00 15.9 3 Sudoeste 10 Oeste 0 -- -- 85
2019-08-17 01:00:00 15.9 0 Calma 5 Sur 0 -- -- 82
2019-08-17 00:00:00 16.8 3 Sudoeste 6 Noroeste 0 -- -- 84
2019-08-16 23:00:00 16.5 3 Noroeste 8 Oeste 0 -- -- 85
2019-08-16 22:00:00 17.3 3 Sudoeste 9 Sudoeste 0 -- -- 86
2019-08-16 21:00:00 18.3 4 Sudoeste 7 Sudoeste 0 -- -- 82
2019-08-16 20:00:00 20.9 4 Sudeste 9 Sudeste 0 -- -- 75
2019-08-16 19:00:00 22.9 5 Sudeste 11 Sur 0 -- -- 69
2019-08-16 18:00:00 23.5 8 Sur 13 Sudeste 0 -- -- 65
2019-08-16 17:00:00 24.3 6 Sudeste 12 Sur 0 -- -- 64
2019-08-16 16:00:00 24.8 6 Sudeste 13 Sur 0 -- -- 57
2019-08-16 15:00:00 24.2 7 Sur 12 Sur 0 -- -- 57
2019-08-16 14:00:00 23.3 3 Este 13 Sur 0 -- -- 60
2019-08-16 13:00:00 22.6 6 Sur 10 Sur 0 -- -- 60
2019-08-16 12:00:00 22.4 3 Sudeste 8 Sudeste 0 -- -- 64
2019-08-16 11:00:00 21.3 2 Nordeste 5 Norte 0 -- -- 60
2019-08-16 10:00:00 20 0 Calma 4 Sudoeste 0 -- -- 55
2019-08-16 09:00:00 16.9 3 Sudoeste 5 Sudoeste 0 -- -- 45
2019-08-16 08:00:00 15.3 3 Norte 6 Sur 0 -- -- 51
2019-08-16 07:00:00 14.8 0 Calma 6 Norte 0 -- -- 67
2019-08-16 06:00:00 14.5 0 Calma 6 Sur 0 -- -- 71
2019-08-16 05:00:00 14.1 3 Norte 5 Norte 0 -- -- 76
2019-08-16 04:00:00 14.1 3 Sur 6 Sudoeste 0 -- -- 79
2019-08-16 03:00:00 13.4 2 Sudoeste 8 Sudoeste 0 -- -- 85
2019-08-16 02:00:00 12.5 4 Sudoeste 6 Sudoeste 0 -- -- 95
2019-08-16 01:00:00 12.8 5 Norte 9 Norte 0 -- -- 97
2019-08-16 00:00:00 12.4 2 Sudeste 10 Sudoeste 0 -- -- 98
2019-08-15 23:00:00 12.7 2 Sudeste 5 Sudeste 0 -- -- 98
2019-08-15 22:00:00 13 3 Sur 5 Sur 0 -- -- 97
2019-08-15 21:00:00 13.6 0 Calma 6 Sudoeste 0 -- -- 96
2019-08-15 20:00:00 13.8 2 Sudoeste 6 Sudoeste 0 -- -- 95
2019-08-15 19:00:00 14.1 3 Sudeste 6 Sur 0 -- -- 95
2019-08-15 18:00:00 13.8 4 Sudeste 12 Este 0 -- -- 96
2019-08-15 17:00:00 13.8 6 Nordeste 19 Norte 0 -- -- 96
2019-08-15 16:00:00 14.1 6 Nordeste 19 Nordeste 0 -- -- 95
2019-08-15 15:00:00 14.1 12 Norte 21 Nordeste 0 -- -- 94
2019-08-15 14:00:00 15.9 6 Nordeste 19 Nordeste 0 -- -- 85
2019-08-15 13:00:00 16.4 10 Nordeste 20 Nordeste 0 -- -- 82
2019-08-15 12:00:00 17.7 4 Sudeste 13 Nordeste 0 -- -- 80
2019-08-15 11:00:00 16 4 Nordeste 12 Sudeste 0 -- -- 89
2019-08-15 10:00:00 14.9 4 Sudeste 8 Este 0 -- -- 95
2019-08-15 09:00:00 13.9 3 Sudeste 6 Sur 0 -- -- 97
2019-08-15 08:00:00 13.5 3 Sudeste 13 Noroeste 0 -- -- 97
2019-08-15 07:00:00 13.8 2 Sudoeste 6 Nordeste 0 -- -- 97
2019-08-15 06:00:00 14 2 Este 11 Noroeste 0 -- -- 96
2019-08-15 05:00:00 14 4 Norte 20 Oeste 0 -- -- 93
2019-08-15 04:00:00 14.7 9 Oeste 20 Noroeste 0 -- -- 94
2019-08-15 03:00:00 15.2 2 Sur 5 Sudoeste 0.2 -- -- 97
2019-08-15 02:00:00 15.5 3 Sudeste 26 Oeste 0 -- -- 96
2019-08-15 01:00:00 15.7 17 Sudoeste 31 Oeste 0 -- -- 96
2019-08-15 00:00:00 15.4 6 Sudoeste 12 Oeste 0 -- -- 95
2019-08-14 23:00:00 15.5 3 Sur 6 Nordeste 0 -- -- 93
2019-08-14 22:00:00 16 5 Sudoeste 17 Oeste 0 -- -- 90
2019-08-14 21:00:00 16.3 4 Sur 7 Sur 0 -- -- 86
2019-08-14 20:00:00 18.9 4 Sur 9 Sur 0 -- -- 72
2019-08-14 19:00:00 20.5 7 Sur 12 Sudoeste 0 -- -- 67
2019-08-14 18:00:00 21 6 Sur 13 Sur 0 -- -- 69
2019-08-14 17:00:00 21.9 6 Sudeste 12 Sudeste 0 -- -- 64
2019-08-14 16:00:00 22.4 4 Sudeste 13 Sudeste 0 -- -- 63
2019-08-14 15:00:00 22.4 5 Sudeste 14 Sudeste 0 -- -- 64
2019-08-14 14:00:00 22 4 Sudeste 12 Sur 0 -- -- 64
2019-08-14 13:00:00 21.2 4 Sudeste 10 Sudeste 0 -- -- 62
2019-08-14 12:00:00 19.9 3 Sudeste 9 Sudeste 0 -- -- 67
2019-08-14 11:00:00 17.8 3 Sur 6 Nordeste 0 -- -- 72
2019-08-14 10:00:00 17 2 Nordeste 7 Nordeste 0 -- -- 71
2019-08-14 09:00:00 15.2 0 Calma 6 Norte 0 -- -- 69
2019-08-14 08:00:00 14.2 3 Norte 10 Noroeste 0 -- -- 68
2019-08-14 07:00:00 13.8 3 Sudoeste 14 Oeste 0 -- -- 74
2019-08-14 06:00:00 15.7 10 Oeste 19 Oeste 0 -- -- 57
2019-08-14 05:00:00 14.2 4 Sudoeste 9 Norte 0 -- -- 79
2019-08-14 04:00:00 13.5 0 Calma 5 Noroeste 0 -- -- 82
2019-08-14 03:00:00 13.3 0 Calma 6 Sur 0 -- -- 82
2019-08-14 02:00:00 13.3 2 Sudoeste 5 Sudoeste 0 -- -- 80
2019-08-14 01:00:00 13.4 2 Norte 10 Oeste 0 -- -- 78
2019-08-14 00:00:00 13.3 6 Sudoeste 9 Oeste 0 -- -- 78
2019-08-13 23:00:00 12.9 2 Norte 4 Norte 0 -- -- 90
2019-08-13 22:00:00 12.9 0 Calma 4 Sur 0 -- -- 90
2019-08-13 21:00:00 13.6 0 Calma 5 Sur 0 -- -- 88
2019-08-13 20:00:00 15.2 2 Sudoeste 8 Oeste 0 -- -- 82
2019-08-13 19:00:00 15.2 2 Nordeste 10 Norte 0 -- -- 81
2019-08-13 18:00:00 17.3 3 Este 9 Sur 0 -- -- 76
2019-08-13 17:00:00 16 5 Sudeste 19 Nordeste 0 -- -- 81
2019-08-13 16:00:00 15.7 11 Nordeste 24 Nordeste 0 -- -- 81
2019-08-13 15:00:00 17.2 12 Nordeste 26 Nordeste 0 -- -- 71
2019-08-13 14:00:00 17.1 6 Nordeste 15 Nordeste 0 -- -- 70
2019-08-13 13:00:00 15.3 7 Nordeste 15 Nordeste 0 -- -- 69
2019-08-13 12:00:00 14.3 7 Nordeste 18 Nordeste 0 -- -- 70
2019-08-13 11:00:00 13.7 8 Nordeste 12 Nordeste 0 -- -- 75
2019-08-13 10:00:00 12.6 3 Este 7 Nordeste 0 -- -- 81
2019-08-13 09:00:00 10.3 3 Nordeste 5 Nordeste 0 -- -- 88
2019-08-13 08:00:00 9.3 3 Noroeste 6 Norte 0 -- -- 87
2019-08-13 07:00:00 8.9 0 Calma 5 Norte 0 -- -- 89
2019-08-13 06:00:00 9.1 3 Norte 10 Norte 0 -- -- 92
2019-08-13 05:00:00 9.1 4 Norte 9 Norte 0 -- -- 90
2019-08-13 04:00:00 9.5 4 Noroeste 6 Noroeste 0 -- -- 88
2019-08-13 03:00:00 9.8 4 Norte 8 Norte 0 -- -- 92
2019-08-13 02:00:00 9.8 4 Sudoeste 4 Sudoeste 0 -- -- 93
2019-08-13 01:00:00 10.1 3 Sudoeste 5 Oeste 0 -- -- 93
2019-08-13 00:00:00 10.3 0 Calma 9 Oeste 0 -- -- 93
2019-08-12 23:00:00 10.4 4 Sudoeste 6 Noroeste 0 -- -- 94
2019-08-12 22:00:00 10.5 2 Oeste 16 Nordeste 0.2 -- -- 92
2019-08-12 21:00:00 10.6 12 Nordeste 21 Nordeste 0 -- -- 90
2019-08-12 20:00:00 11.7 6 Nordeste 12 Nordeste 0 -- -- 85
2019-08-12 19:00:00 12.7 4 Este 21 Noroeste 0 -- -- 82
2019-08-12 18:00:00 13.6 11 Norte 33 Norte 0 -- -- 67
2019-08-12 17:00:00 13.1 15 Noroeste 33 Oeste 0 -- -- 65
2019-08-12 16:00:00 14 19 Oeste 33 Oeste 0 -- -- 69
2019-08-12 15:00:00 14.7 12 Oeste 30 Sudoeste 0 -- -- 71
2019-08-12 14:00:00 14.4 14 Oeste 31 Sudoeste 0 -- -- 67
2019-08-12 13:00:00 14 15 Oeste 31 Oeste 0 -- -- 63
2019-08-12 12:00:00 13.1 16 Oeste 36 Oeste 0 -- -- 65
2019-08-12 11:00:00 12.6 14 Oeste 31 Sudoeste 0 -- -- 71
2019-08-12 10:00:00 12.2 18 Sudoeste 35 Sudoeste 0 -- -- 66
2019-08-12 09:00:00 10.7 17 Sudoeste 32 Oeste 0 -- -- 72
2019-08-12 08:00:00 10.2 10 Oeste 23 Oeste 0 -- -- 74
2019-08-12 07:00:00 9.7 14 Oeste 24 Oeste 0 -- -- 75
2019-08-12 06:00:00 9.5 11 Oeste 20 Sudoeste 0 -- -- 78
2019-08-12 05:00:00 9.8 9 Oeste 24 Oeste 0 -- -- 78
2019-08-12 04:00:00 10.5 17 Oeste 28 Oeste 0 -- -- 74
2019-08-12 03:00:00 10.4 14 Oeste 26 Oeste 0 -- -- 76
2019-08-12 02:00:00 10.6 12 Oeste 22 Oeste 0 -- -- 73
2019-08-12 01:00:00 10.5 13 Oeste 22 Oeste 0 -- -- 73
2019-08-12 00:00:00 10.5 14 Oeste 23 Oeste 0 -- -- 75
2019-08-11 23:00:00 10.8 17 Oeste 28 Noroeste 0 -- -- 76
2019-08-11 22:00:00 10.9 10 Oeste 21 Oeste 0 -- -- 76
2019-08-11 21:00:00 11.1 17 Oeste 27 Oeste 0 -- -- 79
2019-08-11 20:00:00 10.7 14 Oeste 27 Oeste 0.8 -- -- 90
2019-08-11 19:00:00 10.5 14 Oeste 22 Sudoeste 1.2 -- -- 89
2019-08-11 18:00:00 11.4 8 Sudoeste 15 Oeste 1.2 -- -- 95
2019-08-11 17:00:00 12 6 Sudeste 14 Este 0 -- -- 97
2019-08-11 16:00:00 12.8 4 Sudeste 11 Este 0.2 -- -- 95
2019-08-11 15:00:00 14 5 Sur 11 Sur 0.6 -- -- 96
2019-08-11 14:00:00 13.4 5 Sudeste 12 Sur 0.2 -- -- 93
2019-08-11 13:00:00 13.7 5 Sur 9 Sur 0 -- -- 89
2019-08-11 12:00:00 13 5 Sur 10 Sudeste 0 -- -- 91
2019-08-11 11:00:00 13.4 3 Este 9 Sudeste 0 -- -- 91
2019-08-11 10:00:00 12.8 2 Nordeste 8 Oeste 0 -- -- 92
2019-08-11 09:00:00 11.7 8 Oeste 14 Sudoeste 0 -- -- 86
2019-08-11 08:00:00 11.1 6 Oeste 12 Oeste 0 -- -- 92
2019-08-11 07:00:00 10.8 4 Nordeste 17 Sudeste 0 -- -- 95
2019-08-11 06:00:00 11.2 7 Norte 10 Nordeste 0.8 -- -- 93
2019-08-11 05:00:00 11.5 2 Oeste 11 Nordeste 0 -- -- 90
2019-08-11 04:00:00 11.6 8 Nordeste 13 Norte 0 -- -- 89
2019-08-11 03:00:00 12 3 Norte 8 Norte 0 -- -- 81
2019-08-11 02:00:00 12.3 3 Norte 7 Norte 0 -- -- 79
2019-08-11 01:00:00 12.5 3 Nordeste 9 Noroeste 0 -- -- 76
2019-08-11 00:00:00 12.5 6 Nordeste 8 Nordeste 0 -- -- 79
2019-08-10 23:00:00 12.4 5 Nordeste 7 Nordeste 0 -- -- 85
2019-08-10 22:00:00 12.5 2 Este 5 Sudoeste 0 -- -- 84
2019-08-10 21:00:00 12.7 2 Sudeste 8 Sudoeste 0 -- -- 84
2019-08-10 20:00:00 12.4 5 Sudoeste 9 Sudoeste 0 -- -- 86
2019-08-10 19:00:00 12.3 3 Sur 14 Nordeste 0 -- -- 90
2019-08-10 18:00:00 12.3 11 Nordeste 22 Nordeste 0 -- -- 89
2019-08-10 17:00:00 13 9 Nordeste 19 Nordeste 0 -- -- 92
2019-08-10 16:00:00 13.9 9 Nordeste 21 Nordeste 0 -- -- 86
2019-08-10 15:00:00 16 10 Nordeste 27 Nordeste 0 -- -- 74
2019-08-10 14:00:00 15.2 14 Nordeste 26 Nordeste 0 -- -- 80
2019-08-10 13:00:00 17.5 8 Nordeste 15 Nordeste 0 -- -- 74
2019-08-10 12:00:00 16 4 Este 10 Sudeste 0 -- -- 83
2019-08-10 11:00:00 14.3 3 Sur 7 Nordeste 0 -- -- 87
2019-08-10 10:00:00 13.9 4 Sudeste 9 Sur 0 -- -- 87
2019-08-10 09:00:00 13.6 4 Sudoeste 15 Nordeste 0 -- -- 90
2019-08-10 08:00:00 13.2 9 Nordeste 26 Nordeste 0 -- -- 98
2019-08-10 07:00:00 13.9 12 Nordeste 22 Nordeste 0 -- -- 98
2019-08-10 06:00:00 14.1 7 Nordeste 20 Este 0 -- -- 98
2019-08-10 05:00:00 14.3 7 Nordeste 15 Nordeste 0 -- -- 98
2019-08-10 04:00:00 14.4 8 Nordeste 17 Nordeste 0 -- -- 98
2019-08-10 03:00:00 14.6 12 Nordeste 19 Nordeste 0 -- -- 97
2019-08-10 02:00:00 15.2 8 Nordeste 13 Nordeste 0 -- -- 96
2019-08-10 01:00:00 15.4 5 Nordeste 20 Nordeste 0 -- -- 93
2019-08-10 00:00:00 15.7 8 Nordeste 14 Nordeste 0 -- -- 89
2019-08-09 23:00:00 15.8 3 Norte 14 Nordeste 0 -- -- 85
2019-08-09 22:00:00 16.3 3 Oeste 16 Norte 0 -- -- 85
2019-08-09 21:00:00 17 4 Sudoeste 8 Oeste 0 -- -- 85
2019-08-09 20:00:00 17.4 5 Noroeste 10 Sudoeste 0 -- -- 83
2019-08-09 19:00:00 18.3 3 Nordeste 13 Sur 0 -- -- 84
2019-08-09 18:00:00 18.2 4 Sur 12 Sudoeste 0 -- -- 88
2019-08-09 17:00:00 19.3 6 Sudeste 12 Sur 0 -- -- 90
2019-08-09 16:00:00 17.9 7 Sudeste 15 Sur 0 -- -- 92
2019-08-09 15:00:00 18.5 4 Sur 13 Sur 0 -- -- 90
2019-08-09 14:00:00 18.7 5 Sudeste 14 Sudoeste 0 -- -- 76
2019-08-09 13:00:00 19.3 6 Nordeste 16 Norte 0 -- -- 87
2019-08-09 12:00:00 20 6 Nordeste 17 Norte 0 -- -- 87
2019-08-09 11:00:00 18.3 4 Nordeste 15 Nordeste 0 -- -- 98
2019-08-09 10:00:00 17.8 5 Este 11 Sur 0 -- -- 96
2019-08-09 09:00:00 17.6 3 Este 11 Sur 0 -- -- 96
2019-08-09 08:00:00 18.2 0 Calma 17 Nordeste 0 -- -- 91
2019-08-09 07:00:00 20.4 8 Nordeste 22 Nordeste 0 -- -- 74
2019-08-09 06:00:00 21.5 6 Nordeste 19 Este 0 -- -- 65
2019-08-09 05:00:00 22.4 8 Este 36 Sudoeste 0 -- -- 60
2019-08-09 04:00:00 23.4 18 Oeste 44 Oeste 0 -- -- 53
2019-08-09 03:00:00 23.1 16 Sudoeste 33 Sudoeste 0 -- -- 54
2019-08-09 02:00:00 23.1 7 Norte 52 Sudoeste 0 -- -- 56
2019-08-09 01:00:00 23.6 25 Sudoeste 60 Sudoeste 0 -- -- 52
2019-08-09 00:00:00 24 29 Sudoeste 51 Sur 0 -- -- 49
2019-08-08 23:00:00 23.9 31 Sur 50 Sur 0 -- -- 50
2019-08-08 22:00:00 24.3 28 Sur 41 Sur 0 -- -- 54
2019-08-08 21:00:00 25.1 21 Oeste 45 Oeste 0 -- -- 51
2019-08-08 20:00:00 25 25 Sudoeste 61 Sur 0 -- -- 53
2019-08-08 19:00:00 25.5 24 Oeste 40 Oeste 0 -- -- 52
2019-08-08 18:00:00 25.7 12 Sudoeste 32 Oeste 0 -- -- 56
2019-08-08 17:00:00 26.2 12 Sudoeste 43 Sudoeste 0 -- -- 55
2019-08-08 16:00:00 25.7 31 Sudoeste 50 Sudoeste 0 -- -- 52
2019-08-08 15:00:00 24.3 9 Nordeste 14 Nordeste 0 -- -- 64
2019-08-08 14:00:00 25.2 9 Nordeste 21 Sur 0 -- -- 57
2019-08-08 13:00:00 25.1 4 Nordeste 13 Nordeste 0 -- -- 59
2019-08-08 12:00:00 24.7 6 Sudeste 20 Sudeste 0 -- -- 60
2019-08-08 11:00:00 23.4 5 Este 17 Sudeste 0 -- -- 66
2019-08-08 10:00:00 21.8 3 Nordeste 10 Nordeste 0 -- -- 66
2019-08-08 09:00:00 19.9 8 Nordeste 12 Nordeste 0 -- -- 72
2019-08-08 08:00:00 18.3 7 Norte 13 Norte 0 -- -- 77
2019-08-08 07:00:00 17.9 7 Norte 12 Norte 0 -- -- 77
2019-08-08 06:00:00 18.1 4 Oeste 12 Nordeste 0 -- -- 77
2019-08-08 05:00:00 18.2 5 Norte 10 Noroeste 0 -- -- 77
2019-08-08 04:00:00 18.7 6 Noroeste 17 Oeste 0 -- -- 74
2019-08-08 03:00:00 17.6 4 Noroeste 9 Norte 0 -- -- 79
2019-08-08 02:00:00 17 0 Calma 14 Norte 0 -- -- 80
2019-08-08 01:00:00 17 8 Norte 14 Norte 0 -- -- 80
2019-08-08 00:00:00 17 5 Norte 9 Norte 0 -- -- 81
2019-08-07 23:00:00 17.5 3 Norte 6 Sudoeste 0 -- -- 82
2019-08-07 22:00:00 17.6 2 Norte 5 Norte 0 -- -- 81
2019-08-07 21:00:00 17.9 0 Calma 7 Sudoeste 0 -- -- 79
2019-08-07 20:00:00 18.2 4 Sudoeste 7 Sur 0 -- -- 78
2019-08-07 19:00:00 19.3 5 Sur 11 Sur 0 -- -- 75
2019-08-07 18:00:00 20.2 5 Sur 14 Este 0 -- -- 77
2019-08-07 17:00:00 20.3 5 Este 21 Nordeste 0 -- -- 76
2019-08-07 16:00:00 21 7 Nordeste 18 Nordeste 0 -- -- 81
2019-08-07 15:00:00 21 6 Nordeste 14 Nordeste 0 -- -- 80
2019-08-07 14:00:00 21.1 10 Nordeste 16 Nordeste 0 -- -- 74
2019-08-07 13:00:00 21.5 4 Este 12 Nordeste 0 -- -- 74
2019-08-07 12:00:00 20.7 4 Nordeste 9 Nordeste 0 -- -- 74
2019-08-07 11:00:00 19.4 3 Nordeste 8 Sur 0 -- -- 80
2019-08-07 10:00:00 18.3 3 Este 6 Sudeste 0 -- -- 80
2019-08-07 09:00:00 16.5 3 Sudeste 6 Oeste 0 -- -- 87
2019-08-07 08:00:00 15.1 4 Oeste 9 Norte 0 -- -- 85
2019-08-07 07:00:00 14.8 2 Sur 4 Sudeste 0 -- -- 87
2019-08-07 06:00:00 15.2 2 Este 6 Norte 0 -- -- 86
2019-08-07 05:00:00 15.5 0 Calma 7 Norte 0 -- -- 85
2019-08-07 04:00:00 15.3 4 Norte 6 Norte 0 -- -- 88
2019-08-07 03:00:00 15 3 Norte -- -- -- -- -- 89
2019-08-07 02:00:00 15.2 4 Nordeste 9 Noroeste 0 -- -- 90
2019-08-07 01:00:00 15.5 6 Norte 11 Noroeste 0 -- -- 85
2019-08-07 00:00:00 15.3 2 Norte 8 Norte 0 -- -- 89
2019-08-06 23:00:00 14.3 6 Oeste 18 Noroeste 0 -- -- 97
2019-08-06 22:00:00 14.7 9 Nordeste 24 Sudoeste 7.8 -- -- 97
2019-08-06 21:00:00 15.2 5 Sudeste 20 Sudoeste 7 -- -- 96
2019-08-06 20:00:00 15.8 5 Sudoeste 10 Sudoeste 0.2 -- -- 94
2019-08-06 19:00:00 16.8 2 Nordeste 10 Sur 0 -- -- 90
2019-08-06 18:00:00 18.5 4 Sur 10 Sudoeste 0 -- -- 89
2019-08-06 17:00:00 19.7 5 Sudeste 9 Sur 0 -- -- 84
2019-08-06 16:00:00 20.2 4 Sudeste 16 Nordeste 0 -- -- 83
2019-08-06 15:00:00 21.2 9 Nordeste 16 Nordeste 0 -- -- 78
2019-08-06 14:00:00 23.2 5 Sudeste 13 Sudoeste -- -- -- 72
2019-08-06 13:00:00 21.3 4 Sur 9 Sudoeste 0 -- -- 78
2019-08-06 12:00:00 19.4 4 Sur 8 Sur 0 -- -- 84
2019-08-06 11:00:00 17.9 2 Este 6 Nordeste 0 -- -- 87
2019-08-06 10:00:00 18.2 0 Calma 6 Sur 0 -- -- 82
2019-08-06 09:00:00 16.9 0 Calma 6 Norte 0 -- -- 81
2019-08-06 08:00:00 15.8 3 Nordeste 7 Norte 0 -- -- 86
2019-08-06 07:00:00 15.8 3 Nordeste 6 Nordeste 0 -- -- 86
2019-08-06 06:00:00 16 0 Calma 6 Nordeste 0 -- -- 86
2019-08-06 05:00:00 15.6 4 Nordeste 7 Nordeste 0 -- -- 90
2019-08-06 04:00:00 15.6 6 Norte 9 Nordeste 0 -- -- 91
2019-08-06 03:00:00 16.2 2 Sudoeste 7 Norte 0 -- -- 88
2019-08-06 02:00:00 16.4 2 Noroeste 7 Noroeste 0 -- -- 88
2019-08-06 01:00:00 16.2 3 Noroeste 7 Oeste 0 -- -- 92
2019-08-06 00:00:00 15.9 5 Noroeste 8 Oeste 0 -- -- 95
2019-08-05 23:00:00 16 0 Calma 5 Nordeste 0 -- -- 95
2019-08-05 22:00:00 16.2 4 Sur 6 Sudoeste 0 -- -- 95
2019-08-05 21:00:00 16.9 2 Oeste 8 Sudoeste 0 -- -- 93
2019-08-05 20:00:00 19.1 0 Calma 6 Sudoeste 0 -- -- 85
2019-08-05 19:00:00 18.8 4 Sur 9 Sudoeste 0 -- -- 85
2019-08-05 18:00:00 19.8 2 Este 11 Sudeste 0 -- -- 83
2019-08-05 17:00:00 21.3 4 Sur 12 Sur 0 -- -- 79
2019-08-05 16:00:00 20.3 4 Este 12 Sudeste 0 -- -- 80
2019-08-05 15:00:00 19.9 3 Sudeste 14 Este 0 -- -- 81
2019-08-05 14:00:00 19.2 6 Este 13 Este 0 -- -- 82
2019-08-05 13:00:00 19 5 Este 10 Este 0 -- -- 85
2019-08-05 12:00:00 18.3 3 Sudeste 10 Sur 0 -- -- 90
2019-08-05 11:00:00 15.3 2 Sur 6 Sur 0 -- -- 95
2019-08-05 10:00:00 14.9 0 Calma 5 Sur 0 -- -- 97
2019-08-05 09:00:00 14.1 2 Este 4 Este 0 -- -- 98
2019-08-05 08:00:00 13.8 3 Nordeste 5 Nordeste 0 -- -- 97
2019-08-05 07:00:00 13.9 0 Calma 3 Nordeste 0 -- -- 95
2019-08-05 06:00:00 14.2 2 Nordeste 5 Nordeste 0 -- -- 95
2019-08-05 05:00:00 14.3 4 Nordeste 7 Nordeste 0 -- -- 97
2019-08-05 04:00:00 14.6 2 Norte 7 Norte 0 -- -- 98
2019-08-05 03:00:00 14.8 0 Calma 2 Nordeste 0 -- -- 98
2019-08-05 02:00:00 15.2 0 Calma 4 Oeste 0 -- -- 98
2019-08-05 01:00:00 15.2 3 Oeste 4 Noroeste 0 -- -- 98
2019-08-05 00:00:00 15.1 0 Calma 3 Nordeste 0 -- -- 98
2019-08-04 23:00:00 15.1 0 Calma 3 Sudoeste 0.2 -- -- 98
2019-08-04 22:00:00 15.1 0 Calma 7 Noroeste 0 -- -- 98
2019-08-04 21:00:00 15.3 0 Calma 4 Sudoeste 0 -- -- 97
2019-08-04 20:00:00 15.5 2 Sudoeste 4 Oeste 0 -- -- 97
2019-08-04 19:00:00 15.6 0 Calma 6 Sur 0 -- -- 96
2019-08-04 18:00:00 15.7 3 Sudoeste 8 Oeste 0 -- -- 94
2019-08-04 17:00:00 15.9 3 Sudeste 8 Sudoeste 0 -- -- 94
2019-08-04 16:00:00 16.6 2 Este 6 Sudoeste 0 -- -- 92
2019-08-04 15:00:00 16.7 2 Sudeste 12 Este 0 -- -- 92
2019-08-04 14:00:00 17.1 3 Este 9 Oeste 0 -- -- 89
2019-08-04 13:00:00 18 3 Este 9 Este 0 -- -- 84
2019-08-04 12:00:00 16.7 4 Sur 8 Este 0 -- -- 90
2019-08-04 11:00:00 15.3 3 Este 5 Nordeste 0 -- -- 93
2019-08-04 10:00:00 15 0 Calma 8 Oeste 0 -- -- 94
2019-08-04 09:00:00 14.4 6 Noroeste 10 Noroeste 0 -- -- 93
2019-08-04 08:00:00 13.9 0 Calma 9 Oeste 0 -- -- 96
2019-08-04 07:00:00 13.8 6 Norte 9 Norte 0 -- -- 96
2019-08-04 06:00:00 13.9 0 Calma 5 Este 0 -- -- 97
2019-08-04 05:00:00 13.8 0 Calma 4 Norte 0 -- -- 97
2019-08-04 04:00:00 14.1 2 Este 3 Este 0 -- -- 94
2019-08-04 03:00:00 14.5 2 Sudoeste 3 Sudoeste 0 -- -- 94
2019-08-04 02:00:00 14.6 2 Norte 5 Norte 0 -- -- 97
2019-08-04 01:00:00 14.8 3 Norte 6 Norte 0 -- -- 98
2019-08-04 00:00:00 15.1 2 Norte 4 Nordeste 0 -- -- 97
2019-08-03 23:00:00 15.7 3 Oeste 4 Sudoeste 0 -- -- 97
2019-08-03 22:00:00 16.1 3 Oeste 5 Sudoeste 0 -- -- 96
2019-08-03 21:00:00 16.7 2 Oeste 7 Sur 0 -- -- 95
2019-08-03 20:00:00 17.8 3 Sudeste 8 Sudoeste 0 -- -- 92
2019-08-03 19:00:00 18.7 3 Oeste 9 Sur 0 -- -- 88
2019-08-03 18:00:00 19.7 4 Sudoeste 9 Sur 0 -- -- 86
2019-08-03 17:00:00 21.2 5 Sur 10 Sudoeste 0 -- -- 81
2019-08-03 16:00:00 23.3 6 Sur 11 Sudeste 0 -- -- 76
2019-08-03 15:00:00 24 5 Sur 10 Sur 0 -- -- 74
2019-08-03 14:00:00 23.7 4 Sur 10 Sur 0 -- -- 72
2019-08-03 13:00:00 22.7 4 Sudeste 8 Sur 0 -- -- 73
2019-08-03 12:00:00 21.9 4 Sur 6 Sudeste 0 -- -- 73
2019-08-03 11:00:00 20.4 2 Sur 6 Sur 0 -- -- 76
2019-08-03 10:00:00 19 2 Sur 5 Nordeste 0 -- -- 78
2019-08-03 09:00:00 17.9 0 Calma 4 Nordeste 0 -- -- 73
2019-08-03 08:00:00 17.7 0 Calma 3 Norte 0 -- -- 66
2019-08-03 07:00:00 17.1 0 Calma 6 Nordeste 0 -- -- 68
2019-08-03 06:00:00 17 3 Nordeste 8 Nordeste 0 -- -- 70
2019-08-03 05:00:00 16 5 Norte 7 Norte 0 -- -- 73
2019-08-03 04:00:00 16.2 0 Calma 4 Sudoeste 0 -- -- 74
2019-08-03 03:00:00 15.9 2 Nordeste 4 Este 0 -- -- 73
2019-08-03 02:00:00 16 0 Calma 5 Oeste 0 -- -- 75
2019-08-03 01:00:00 15.5 3 Oeste 6 Oeste 0 -- -- 80
2019-08-03 00:00:00 15 0 Calma 5 Sudoeste 0 -- -- 92
2019-08-02 23:00:00 15.7 0 Calma 4 Norte 0 -- -- 96
2019-08-02 22:00:00 16.5 2 Oeste 4 Oeste 0 -- -- 96
2019-08-02 21:00:00 16.9 0 Calma 5 Sudoeste 0 -- -- 95
2019-08-02 20:00:00 17.8 0 Calma 5 Sudoeste 0 -- -- 91
2019-08-02 19:00:00 17.8 4 Sudoeste 7 Sur 0 -- -- 91
2019-08-02 18:00:00 19 4 Sudoeste 9 Sur 0 -- -- 87
2019-08-02 17:00:00 20.9 4 Sur 11 Sur 0 -- -- 80
2019-08-02 16:00:00 21.9 4 Sur 12 Sudoeste 0 -- -- 76
2019-08-02 15:00:00 21 4 Sur 12 Este 0 -- -- 79
2019-08-02 14:00:00 20.2 4 Este 13 Noroeste 0 -- -- 77
2019-08-02 13:00:00 19.8 4 Este 10 Sur 0 -- -- 73
2019-08-02 12:00:00 18.2 3 Sur 9 Sur 0 -- -- 79
2019-08-02 11:00:00 17 4 Sur 8 Sudeste 0 -- -- 83
2019-08-02 10:00:00 16.1 3 Sur 7 Este 0 -- -- 86
2019-08-02 09:00:00 13.6 0 Calma 5 Oeste 0 -- -- 96
2019-08-02 08:00:00 11.9 3 Noroeste 5 Oeste 0 -- -- 97
2019-08-02 07:00:00 12 3 Nordeste 4 Nordeste 0 -- -- 96
2019-08-02 06:00:00 12.2 2 Nordeste 4 Nordeste 0 -- -- 94
2019-08-02 05:00:00 12.7 0 Calma 7 Norte 0 -- -- 93
2019-08-02 04:00:00 12.8 4 Nordeste 8 Nordeste 0 -- -- 92
2019-08-02 03:00:00 13.3 0 Calma 5 Norte 0 -- -- 86
2019-08-02 02:00:00 13.6 2 Norte 6 Norte 0 -- -- 85
2019-08-02 01:00:00 13.6 3 Oeste 8 Noroeste 0 -- -- 83
2019-08-02 00:00:00 13.6 6 Oeste 9 Oeste 0 -- -- 97
2019-08-01 23:00:00 13.5 2 Este 6 Oeste 0 -- -- 97
2019-08-01 22:00:00 13.4 3 Oeste 5 Sudoeste 0 -- -- 97
2019-08-01 21:00:00 13.7 0 Calma 6 Sudoeste 0 -- -- 97
2019-08-01 20:00:00 14.1 0 Calma 8 Este 0 -- -- 96
2019-08-01 19:00:00 14.1 9 Nordeste 22 Este 0 -- -- 96
2019-08-01 18:00:00 15.2 10 Nordeste 20 Este 0 -- -- 93
2019-08-01 17:00:00 17 7 Este 16 Este 0 -- -- 86
2019-08-01 16:00:00 17.9 3 Este 10 Este 0 -- -- 81
2019-08-01 15:00:00 17.9 4 Sur 9 Sudoeste 0 -- -- 82
2019-08-01 14:00:00 16.3 3 Sur 8 Sur 0 -- -- 86
2019-08-01 13:00:00 15.9 3 Sur 6 Sudeste 0 -- -- 84
2019-08-01 12:00:00 15.8 0 Calma 6 Sudeste 0 -- -- 87
2019-08-01 11:00:00 13.6 3 Este 6 Este 0 -- -- 95
2019-08-01 10:00:00 13.3 0 Calma 5 Este 0 -- -- 96
2019-08-01 09:00:00 12.6 2 Este 4 Oeste 0 -- -- 95
2019-08-01 08:00:00 12.2 0 Calma 5 Este 0 -- -- 93
2019-08-01 07:00:00 11.9 3 Nordeste 13 Este 0 -- -- 93
2019-08-01 06:00:00 12 8 Nordeste 12 Norte 0 -- -- 93
2019-08-01 05:00:00 11.7 0 Calma 9 Este 0 -- -- 98
2019-08-01 04:00:00 11.7 7 Este 13 Este 0 -- -- 98
2019-08-01 03:00:00 11.7 8 Este 13 Este 0 -- -- 98
2019-08-01 02:00:00 12.1 7 Este 14 Este 0 -- -- 98
2019-08-01 01:00:00 12.3 5 Este 10 Este 0 -- -- 98
2019-08-01 00:00:00 12.2 5 Este 14 Este 0 -- -- 98
2019-07-31 23:00:00 12.4 3 Este 5 Este 0 -- -- 97
2019-07-31 22:00:00 12.5 2 Sur 4 Sur 0 -- -- 97
2019-07-31 21:00:00 12.6 3 Este 5 Este 0 -- -- 96
2019-07-31 20:00:00 13 2 Sur 9 Este 0 -- -- 95
2019-07-31 19:00:00 12.7 6 Este 20 Nordeste 0 -- -- 95
2019-07-31 18:00:00 14 13 Este 19 Este 0 -- -- 89
2019-07-31 17:00:00 16.2 3 Este 9 Sudeste 0 -- -- 77
2019-07-31 16:00:00 16.5 4 Este 15 Sudeste 0 -- -- 76
2019-07-31 15:00:00 16.3 6 Este 15 Este 0 -- -- 77
2019-07-31 14:00:00 16.2 7 Este 15 Sudeste 0 -- -- 75
2019-07-31 13:00:00 16 7 Este 20 Este 0 -- -- 73
2019-07-31 12:00:00 15.2 5 Este 12 Nordeste 0 -- -- 71
2019-07-31 11:00:00 15 5 Este 13 Este 0 -- -- 75
2019-07-31 10:00:00 13.8 2 Sudeste 12 Este 0 -- -- 80
2019-07-31 09:00:00 11.7 0 Calma 9 Nordeste 0 -- -- 85
2019-07-31 08:00:00 9.9 4 Nordeste 9 Norte 0 -- -- 92
2019-07-31 07:00:00 9.6 6 Nordeste 9 Norte 0 -- -- 92
2019-07-31 06:00:00 9.6 3 Norte 8 Norte 0 -- -- 90
2019-07-31 05:00:00 9.8 0 Calma 4 Nordeste 0 -- -- 88
2019-07-31 04:00:00 9.8 4 Nordeste 6 Norte 0 -- -- 90
2019-07-31 03:00:00 9.9 3 Norte 6 Oeste 0 -- -- 88
2019-07-31 02:00:00 10.1 2 Oeste 4 Oeste 0 -- -- 88
2019-07-31 01:00:00 9.9 3 Oeste 4 Oeste 0 -- -- 95
2019-07-31 00:00:00 10 2 Oeste 4 Sudoeste 0 -- -- 97
2019-07-30 23:00:00 10.2 3 Sur 5 Sudeste 0.4 -- -- 97
2019-07-30 22:00:00 10.5 2 Este 5 Este 0.4 -- -- 96
2019-07-30 21:00:00 10.9 0 Calma 6 Este 0 -- -- 95
2019-07-30 20:00:00 11.1 0 Calma 12 Este 0.2 -- -- 94
2019-07-30 19:00:00 11.2 8 Este 22 Este 0 -- -- 92
2019-07-30 18:00:00 12.2 9 Nordeste 22 Nordeste 0 -- -- 86
2019-07-30 17:00:00 14.3 8 Este 17 Este 0 -- -- 80
2019-07-30 16:00:00 14.9 8 Este 21 Oeste 0 -- -- 75
2019-07-30 15:00:00 14.6 7 Sudoeste 18 Noroeste 0 -- -- 74
2019-07-30 14:00:00 14.2 9 Este 21 Oeste 0 -- -- 68
2019-07-30 13:00:00 14.7 10 Noroeste 23 Oeste 0 -- -- 64
2019-07-30 12:00:00 14.7 12 Noroeste 30 Noroeste 0 -- -- 56
2019-07-30 11:00:00 13.7 10 Oeste 30 Oeste 0 -- -- 65
2019-07-30 10:00:00 12.8 11 Oeste 25 Sudoeste 0 -- -- 60
2019-07-30 09:00:00 11.3 14 Oeste 25 Oeste 0 -- -- 69
2019-07-30 08:00:00 10.9 12 Oeste 26 Oeste 0 -- -- 67
2019-07-30 07:00:00 10.2 12 Oeste 20 Oeste 0 -- -- 70
2019-07-30 06:00:00 10.5 11 Noroeste 36 Noroeste 0 -- -- 70
2019-07-30 05:00:00 10.8 25 Oeste 36 Noroeste 0 -- -- 71
2019-07-30 04:00:00 10.9 15 Noroeste 33 Noroeste 0 -- -- 74
2019-07-30 03:00:00 11.6 12 Noroeste 28 Noroeste 0 -- -- 78
2019-07-30 02:00:00 11.5 12 Oeste 24 Oeste 0 -- -- 84
2019-07-30 01:00:00 11.7 8 Oeste 22 Oeste 0 -- -- 85
2019-07-30 00:00:00 12 13 Oeste 33 Oeste 0 -- -- 86
2019-07-29 23:00:00 12.3 17 Oeste 34 Noroeste 0.4 -- -- 87
2019-07-29 22:00:00 12.5 6 Este 17 Oeste 0.2 -- -- 96
2019-07-29 21:00:00 12.8 3 Sudoeste 7 Nordeste 0.2 -- -- 94
2019-07-29 20:00:00 13.4 5 Nordeste 14 Nordeste 0 -- -- 92
2019-07-29 19:00:00 14.7 4 Este 9 Este 0 -- -- 88
2019-07-29 18:00:00 15.6 2 Sur 8 Sur 0 -- -- 87
2019-07-29 17:00:00 15.2 3 Sudeste 9 Sudeste 0 -- -- 92
2019-07-29 16:00:00 14.5 7 Oeste 14 Norte 0 -- -- 91
2019-07-29 15:00:00 16.4 4 Sur 18 Nordeste 0 -- -- 87
2019-07-29 14:00:00 15.6 3 Nordeste 13 Nordeste 0 -- -- 85
2019-07-29 13:00:00 16 4 Este 14 Este 0 -- -- 84
2019-07-29 12:00:00 14.8 12 Nordeste 21 Nordeste 0 -- -- 82
2019-07-29 11:00:00 16.8 5 Este 16 Nordeste 0 -- -- 72
2019-07-29 10:00:00 16.5 4 Sudeste 13 Nordeste 0 -- -- 79
2019-07-29 09:00:00 15.5 9 Este 18 Este 0 -- -- 82
2019-07-29 08:00:00 15.6 3 Nordeste 7 Norte 0 -- -- 76
2019-07-29 07:00:00 15.4 3 Norte 9 Sudoeste 0 -- -- 74
2019-07-29 06:00:00 15.5 3 Sudeste 9 Norte 0 -- -- 73
2019-07-29 05:00:00 16.2 6 Nordeste 10 Norte 0 -- -- 69
2019-07-29 04:00:00 17.3 4 Norte 12 Noroeste 0 -- -- 64
2019-07-29 03:00:00 17.3 0 Calma 10 Norte 0 -- -- 64
2019-07-29 02:00:00 17.1 2 Nordeste 10 Norte 0 -- -- 67
2019-07-29 01:00:00 16.8 6 Norte 10 Norte 0 -- -- 67
2019-07-29 00:00:00 15.1 0 Calma 4 Sudoeste 0 -- -- 81
2019-07-28 23:00:00 14.6 5 Oeste 7 Oeste 0 -- -- 90
2019-07-28 22:00:00 14.7 4 Oeste 6 Oeste 0 -- -- 90
2019-07-28 21:00:00 15.4 0 Calma 5 Este 0 -- -- 88
2019-07-28 20:00:00 17 2 Sudeste 6 Este 0 -- -- 82
2019-07-28 19:00:00 17.7 3 Nordeste 9 Sur 0 -- -- 78
2019-07-28 18:00:00 16.4 7 Este 13 Este 0 -- -- 84
2019-07-28 17:00:00 18.2 6 Este 15 Este 0 -- -- 77
2019-07-28 16:00:00 18.4 6 Este 15 Este 0 -- -- 75
2019-07-28 15:00:00 18 7 Este 17 Este 0 -- -- 76
2019-07-28 14:00:00 17.4 4 Este 13 Este 0 -- -- 73
2019-07-28 13:00:00 16.7 8 Este 15 Este 0 -- -- 75
2019-07-28 12:00:00 16.6 3 Este 9 Nordeste 0 -- -- 73
2019-07-28 11:00:00 14.9 6 Este 10 Nordeste 0 -- -- 77
2019-07-28 10:00:00 12.9 3 Sudoeste 8 Sudoeste 0 -- -- 80
2019-07-28 09:00:00 11.8 2 Este 6 Este 0 -- -- 89
2019-07-28 08:00:00 10.2 0 Calma 10 Noroeste 0 -- -- 88
2019-07-28 07:00:00 9.9 6 Noroeste 12 Noroeste 0 -- -- 85
2019-07-28 06:00:00 10.2 0 Calma 16 Noroeste 0 -- -- 85
2019-07-28 05:00:00 10.1 6 Oeste 9 Oeste 0 -- -- 87
2019-07-28 04:00:00 10.2 4 Nordeste 13 Noroeste 0 -- -- 89
2019-07-28 03:00:00 11.2 11 Noroeste 15 Noroeste 0 -- -- 81
2019-07-28 02:00:00 11.1 10 Noroeste 19 Oeste 0 -- -- 82
2019-07-28 01:00:00 11.2 12 Oeste 25 Noroeste 0 -- -- 87
2019-07-28 00:00:00 11.2 14 Oeste 28 Oeste 0 -- -- 89
2019-07-27 23:00:00 11.1 14 Noroeste 26 Oeste 0 -- -- 92
2019-07-26 12:00:00 -- -- -- -- -- -- -- -- --
2019-07-26 11:00:00 12.8 15 Oeste 28 Oeste 0 -- -- 86
2019-07-26 10:00:00 12.6 11 Noroeste 24 Noroeste 0.2 -- -- 97
2019-07-26 09:00:00 12.8 11 Oeste 25 Sudoeste 3.6 -- -- 98
2019-07-26 08:00:00 13.5 7 Sudoeste 13 Sudoeste 3.8 -- -- 99
2019-07-26 07:00:00 13.8 4 Sudeste 8 Nordeste 2.2 -- -- 98
2019-07-26 06:00:00 14 0 Calma 20 Sudoeste 10.2 -- -- 98
2019-07-26 05:00:00 14.4 7 Sudoeste 20 Sudoeste 1.4 -- -- 98
2019-07-26 04:00:00 14.6 3 Sudeste 11 Nordeste 0.4 -- -- 98
2019-07-26 03:00:00 14.7 5 Nordeste 21 Este 0.4 -- -- 98
2019-07-26 02:00:00 15 12 Nordeste 23 Este 0.2 -- -- 98
2019-07-26 01:00:00 15.2 7 Este 17 Este 0 -- -- 97
2019-07-26 00:00:00 15.4 12 Este 21 Nordeste 0 -- -- 97
2019-07-25 23:00:00 15.7 7 Este 12 Este 0 -- -- 95
2019-07-25 22:00:00 16.2 0 Calma 6 Sudeste 0 -- -- 93
2019-07-25 21:00:00 16.8 2 Este 18 Nordeste 0 -- -- 88
2019-07-25 20:00:00 18.1 8 Este 23 Este 0 -- -- 80
2019-07-25 19:00:00 18.6 14 Nordeste 31 Este 0 -- -- 73
2019-07-25 18:00:00 19.7 19 Nordeste 32 Este 0 -- -- 71
2019-07-25 17:00:00 20.8 16 Nordeste 27 Nordeste 0 -- -- 67
2019-07-25 16:00:00 21.2 10 Nordeste 24 Nordeste 0 -- -- 58
2019-07-25 15:00:00 22.5 9 Este 30 Nordeste 0 -- -- 64
2019-07-25 14:00:00 23.4 10 Nordeste 21 Nordeste 0 -- -- 66
2019-07-25 13:00:00 24.3 11 Este 26 Nordeste 0 -- -- 57
2019-07-25 12:00:00 25 4 Nordeste 13 Sudoeste 0 -- -- 59
2019-07-25 11:00:00 23.4 5 Sudoeste 15 Sudoeste 0 -- -- 63
2019-07-25 10:00:00 24.5 6 Este 13 Nordeste 0 -- -- 51
2019-07-25 09:00:00 24.3 6 Nordeste 12 Nordeste 0 -- -- 48
2019-07-25 08:00:00 22.8 7 Nordeste 15 Nordeste 0 -- -- 48
2019-07-25 07:00:00 22.5 11 Nordeste 20 Sudoeste 0 -- -- 47
2019-07-25 06:00:00 22.1 7 Nordeste 13 Noroeste 0 -- -- 49
2019-07-25 05:00:00 22.6 4 Nordeste 12 Sudoeste 0 -- -- 47
2019-07-25 04:00:00 20.9 8 Oeste 18 Sudoeste 0 -- -- 57
2019-07-25 03:00:00 21.5 3 Oeste 9 Oeste 0 -- -- 58
2019-07-25 02:00:00 20.3 3 Noroeste 11 Sudoeste 0 -- -- 60
2019-07-25 01:00:00 21.9 3 Sudoeste 9 Sur 0 -- -- 65
2019-07-25 00:00:00 24.7 2 Noroeste 8 Noroeste 0 -- -- 45
2019-07-24 23:00:00 25.5 5 Noroeste 10 Noroeste 0 -- -- 44
2019-07-24 22:00:00 24.8 7 Oeste 14 Sudoeste 0 -- -- 56
2019-07-24 21:00:00 26.9 6 Oeste 21 Sudoeste 0 -- -- 53
2019-07-24 20:00:00 30.6 14 Oeste 28 Noroeste 0 -- -- 30
2019-07-24 19:00:00 31.2 13 Oeste 30 Sur 0 -- -- 29
2019-07-24 18:00:00 31.4 9 Oeste 21 Norte 0 -- -- 50
2019-07-24 17:00:00 30.7 13 Sudoeste 35 Sur 0 -- -- 28
2019-07-24 16:00:00 28.3 6 Nordeste 13 Nordeste 0 -- -- 53
2019-07-24 15:00:00 27.2 5 Este 16 Este 0 -- -- 55
2019-07-24 14:00:00 27.7 5 Nordeste 15 Nordeste 0 -- -- 54
2019-07-24 13:00:00 26.9 9 Nordeste 16 Nordeste 0 -- -- 54
2019-07-24 12:00:00 26.3 7 Nordeste 13 Este 0 -- -- 47
2019-07-24 11:00:00 24.9 6 Este 15 Nordeste 0 -- -- 55
2019-07-24 10:00:00 21.9 5 Este 13 Este 0 -- -- 68
2019-07-24 09:00:00 20.7 3 Oeste 9 Oeste 0 -- -- 73
2019-07-24 08:00:00 18 0 Calma 8 Este 0 -- -- 68
2019-07-24 07:00:00 19.5 6 Nordeste 10 Nordeste 0 -- -- 60
2019-07-24 06:00:00 20 5 Nordeste 10 Norte 0 -- -- 62
2019-07-24 05:00:00 17.5 6 Oeste 11 Oeste 0 -- -- 80
2019-07-24 04:00:00 19.8 7 Nordeste 13 Nordeste 0 -- -- 65
2019-07-24 03:00:00 20 5 Nordeste 30 Sur 0 -- -- 65
2019-07-24 02:00:00 20.7 6 Nordeste 43 Sudoeste 0 -- -- 63
2019-07-24 01:00:00 18.1 8 Nordeste 17 Nordeste 0 -- -- 88
2019-07-24 00:00:00 18.4 9 Nordeste 17 Oeste 0 -- -- 85
2019-07-23 23:00:00 18.9 7 Oeste 17 Noroeste 0.2 -- -- 84
2019-07-23 22:00:00 17.9 12 Oeste 28 Sudeste 0 -- -- 95
2019-07-23 21:00:00 19.3 6 Este 16 Este 0 -- -- 89
2019-07-23 20:00:00 23.3 3 Sudeste 13 Sudoeste 0 -- -- 70
2019-07-23 19:00:00 25.7 6 Sudoeste 13 Nordeste 0 -- -- 60
2019-07-23 18:00:00 27.9 4 Sur 15 Sudoeste 0 -- -- 48
2019-07-23 17:00:00 28.3 8 Sudoeste 15 Sudoeste 0 -- -- 46
2019-07-23 16:00:00 29.7 13 Sudoeste 29 Oeste 0 -- -- 43
2019-07-23 15:00:00 27.5 3 Este 16 Noroeste 0 -- -- 54
2019-07-23 14:00:00 25.8 6 Nordeste 25 Sudoeste 0 -- -- 50
2019-07-23 13:00:00 25.8 6 Nordeste 15 Este 0 -- -- 51
2019-07-23 12:00:00 25.1 9 Nordeste 22 Nordeste 0 -- -- 49
2019-07-23 11:00:00 27 8 Sudeste 40 Este 0 -- -- 39
2019-07-23 10:00:00 26.5 9 Nordeste 57 Sudoeste 0 -- -- 40
2019-07-23 09:00:00 25.5 25 Sur 47 Sudoeste 0 -- -- 36
2019-07-23 08:00:00 23.7 9 Nordeste 19 Este 0 -- -- 42
2019-07-23 07:00:00 23.7 12 Nordeste 20 Nordeste 0 -- -- 41
2019-07-23 06:00:00 24.2 5 Nordeste 12 Nordeste 0 -- -- 39
2019-07-23 05:00:00 23.7 9 Nordeste 21 Norte 0 -- -- 42
2019-07-23 04:00:00 25.9 10 Oeste 29 Sudoeste 0 -- -- 33
2019-07-23 03:00:00 23.1 8 Nordeste 20 Este 0 -- -- 47
2019-07-23 02:00:00 22.3 12 Norte 21 Noroeste 0 -- -- 52
2019-07-23 01:00:00 21.1 3 Nordeste 10 Norte 0 -- -- 58
2019-07-23 00:00:00 21.1 5 Este 53 Noroeste 0 -- -- 64
2019-07-22 23:00:00 23.3 27 Noroeste 82 Sudoeste 0 -- -- 47
2019-07-22 22:00:00 22 27 Sudoeste 66 Oeste 0.6 -- -- 70
2019-07-22 21:00:00 20.9 4 Norte 45 Oeste 1.8 -- -- 86
2019-07-22 20:00:00 22.3 3 Nordeste 17 Oeste 0.2 -- -- 89
2019-07-22 19:00:00 23 3 Sudoeste 8 Sur 0 -- -- 83
2019-07-22 18:00:00 21.5 0 Calma 9 Sur 0 -- -- 88
2019-07-22 17:00:00 22.6 4 Oeste 10 Sudoeste 0 -- -- 89
2019-07-22 16:00:00 24 4 Sudoeste 10 Sur 0 -- -- 81
2019-07-22 15:00:00 23.1 5 Sudoeste 10 Sudoeste 0 -- -- 82
2019-07-22 14:00:00 23 5 Sur 12 Sur 0 -- -- 83
2019-07-22 13:00:00 21.7 4 Sur 12 Sudoeste 0 -- -- 85
2019-07-22 12:00:00 20.2 4 Sur 12 Sudoeste 0 -- -- 91
2019-07-22 11:00:00 18.6 3 Sudeste 8 Sudeste 0 -- -- 98
2019-07-22 10:00:00 17.1 3 Este 8 Sudoeste 0 -- -- 100
2019-07-22 09:00:00 15.8 0 Calma 5 Sudoeste 0 -- -- 100
2019-07-22 08:00:00 15.2 0 Calma 4 Sur 0 -- -- 99
2019-07-22 07:00:00 15.2 0 Calma 4 Este 0 -- -- 99
2019-07-22 06:00:00 15.3 2 Nordeste 6 Nordeste 0 -- -- 99
2019-07-22 05:00:00 15.3 4 Nordeste 10 Este 0 -- -- 99
2019-07-22 04:00:00 15.2 6 Este 14 Nordeste 0 -- -- 99
2019-07-22 03:00:00 15.4 6 Nordeste 12 Este 0 -- -- 99
2019-07-22 02:00:00 15.4 4 Nordeste 8 Nordeste 0 -- -- 99
2019-07-22 01:00:00 15.3 6 Nordeste 12 Nordeste 0 -- -- 99
2019-07-22 00:00:00 15.3 4 Este 11 Nordeste 0.2 -- -- 99